Terminal Aerodrome Forecast
Issued by NWS Wilmington, OH

Current Version | Previous Version | Graphics & Text | Print | Product List | Glossary On
Versions: 1 2 3 4 5 6 7 8 9 10 11 12 13 14 15 16 17
000
FTUS41 KILN 171940 AAA
TAFILN
TAF AMD
KILN 171940Z 1720/1818 22020G40KT 1/2SM +TSRA OVC025CB
     FM172015 22013G23KT P6SM -SHRA VCTS SCT025 BKN035CB
     FM172200 22010KT P6SM -SHRA BKN035
     FM180700 24007KT 4SM BR BKN008
     FM181300 26012KT P6SM BKN015
     FM181700 27012G20KT P6SM BKN040=

USA.gov is the U.S. government's official web portal to all federal, state and local government web resources and services.